Time;durP1;ratioP1;P1;durP2;ratioP2;P2;SDS_P1;SDS_P2;PMS_P1;PMS_P2;Temp;Humidity;BMP_temperature;BMP_pressure;BME280_temperature;BME280_humidity;BME280_pressure;Samples;Min_cycle;Max_cycle;Signal;HPM_P1;HPM_P2
2022/01/27 00:01:17;;;;;;;36.60;16.00;;;6.10;99.90;;;;;;5008391;28;20061;-65
2022/01/27 00:03:50;;;;;;;38.03;15.95;;;6.10;99.90;;;;;;5024273;28;20045;-65
2022/01/27 00:06:17;;;;;;;33.38;17.10;;;6.10;99.90;;;;;;5035893;28;20046;-66
2022/01/27 00:08:55;;;;;;;41.92;17.83;;;6.10;99.90;;;;;;5037639;28;20076;-66
2022/01/27 00:11:21;;;;;;;35.58;16.85;;;6.10;99.90;;;;;;5038451;28;25141;-65
2022/01/27 00:13:49;;;;;;;32.83;16.75;;;6.10;99.90;;;;;;5037914;28;20037;-65
2022/01/27 00:16:24;;;;;;;36.92;17.83;;;6.10;99.90;;;;;;5022775;28;20044;-65
2022/01/27 00:18:52;;;;;;;35.97;17.25;;;6.10;99.90;;;;;;5007373;28;20079;-65
2022/01/27 00:21:22;;;;;;;31.10;16.40;;;6.10;99.90;;;;;;5038165;28;20045;-65
2022/01/27 00:23:48;;;;;;;33.72;16.38;;;6.10;99.90;;;;;;5005793;28;20225;-65
2022/01/27 00:26:16;;;;;;;36.78;16.60;;;6.10;99.90;;;;;;5019775;28;20095;-65
2022/01/27 00:28:43;;;;;;;37.92;18.70;;;6.10;99.90;;;;;;5027764;28;20573;-66
2022/01/27 00:31:09;;;;;;;37.88;17.23;;;6.10;99.90;;;;;;5006808;28;20045;-65
2022/01/27 00:33:35;;;;;;;36.58;17.35;;;6.10;99.90;;;;;;5037075;28;20053;-65
2022/01/27 00:36:02;;;;;;;38.67;18.15;;;6.10;99.90;;;;;;5033684;28;20401;-65
2022/01/27 00:38:29;;;;;;;39.13;18.05;;;6.10;99.90;;;;;;5009462;28;20080;-65
2022/01/27 00:40:55;;;;;;;39.58;17.25;;;6.10;99.90;;;;;;5023910;28;20061;-65
2022/01/27 00:43:21;;;;;;;39.88;17.95;;;6.00;99.90;;;;;;5022160;28;20520;-65
2022/01/27 00:45:47;;;;;;;35.95;17.05;;;6.00;99.90;;;;;;5027375;28;20041;-66
2022/01/27 00:48:16;;;;;;;38.95;17.88;;;6.00;99.90;;;;;;5026178;28;20095;-65
2022/01/27 00:50:42;;;;;;;34.85;18.08;;;6.00;99.90;;;;;;5038615;28;20083;-65
2022/01/27 00:53:25;;;;;;;40.33;18.58;;;5.90;99.90;;;;;;5039339;28;20056;-65
2022/01/27 00:55:52;;;;;;;32.15;17.25;;;6.00;99.90;;;;;;5009208;28;20521;-65
2022/01/27 01:00:54;;;;;;;41.88;17.27;;;5.90;99.90;;;;;;5028944;28;20063;-66
2022/01/27 01:03:29;;;;;;;43.15;17.77;;;6.00;99.90;;;;;;5009644;28;20156;-65
2022/01/27 01:14:31;;;;;;;31.73;16.95;;;6.00;99.90;;;;;;5010737;28;20052;-65
2022/01/27 01:18:01;;;;;;;38.60;17.27;;;5.90;99.90;;;;;;5018041;28;20044;-65
2022/01/27 01:33:08;;;;;;;41.88;19.38;;;5.70;99.90;;;;;;5039643;28;20041;-65
2022/01/27 01:36:01;;;;;;;38.50;19.25;;;5.70;99.90;;;;;;5022339;28;20051;-65
2022/01/27 01:38:25;;;;;;;34.30;19.13;;;5.80;99.90;;;;;;5023218;28;20060;-65
2022/01/27 01:40:53;;;;;;;38.88;19.67;;;5.70;99.90;;;;;;5005662;28;20544;-65
2022/01/27 01:43:20;;;;;;;42.80;19.80;;;5.70;99.90;;;;;;5022253;28;20089;-65
2022/01/27 01:45:46;;;;;;;45.63;19.65;;;5.70;99.90;;;;;;5036076;28;20144;-65
2022/01/27 01:48:15;;;;;;;37.78;20.23;;;5.70;99.90;;;;;;5019969;28;20076;-65
2022/01/27 01:50:41;;;;;;;40.42;19.63;;;5.70;99.90;;;;;;5021371;28;20037;-65
2022/01/27 01:53:06;;;;;;;41.90;19.88;;;5.70;99.90;;;;;;5020605;28;20450;-65
2022/01/27 01:55:33;;;;;;;38.10;20.42;;;5.60;99.90;;;;;;5011077;28;20052;-65
2022/01/27 01:58:00;;;;;;;40.10;20.27;;;5.70;99.90;;;;;;5036394;28;20527;-65
2022/01/27 02:00:27;;;;;;;38.53;19.52;;;5.70;99.90;;;;;;5012207;28;20516;-65
2022/01/27 02:02:53;;;;;;;42.70;20.70;;;5.70;99.90;;;;;;5040058;28;20179;-65
2022/01/27 02:05:23;;;;;;;43.17;20.33;;;5.70;99.90;;;;;;5010342;28;20092;-65
2022/01/27 02:19:26;;;;;;;40.60;21.08;;;5.60;99.90;;;;;;5022275;28;20069;-65
2022/01/27 02:21:54;;;;;;;39.53;21.55;;;5.60;99.90;;;;;;5011195;28;20115;-65
2022/01/27 02:24:23;;;;;;;39.85;20.40;;;5.60;99.90;;;;;;5018417;28;20045;-65
2022/01/27 02:26:49;;;;;;;38.83;20.73;;;5.60;99.90;;;;;;4994511;28;22229;-66
2022/01/27 02:29:17;;;;;;;46.65;21.30;;;5.60;99.90;;;;;;5036461;28;20072;-65
2022/01/27 02:31:43;;;;;;;43.50;21.20;;;5.70;99.90;;;;;;4992182;28;20080;-65
2022/01/27 02:34:09;;;;;;;42.22;21.45;;;5.70;99.90;;;;;;5015000;28;20381;-65
2022/01/27 02:36:35;;;;;;;41.90;21.98;;;5.70;99.90;;;;;;5035069;28;20100;-66
2022/01/27 02:39:06;;;;;;;43.38;21.80;;;5.70;99.90;;;;;;5020563;28;20479;-65
2022/01/27 02:41:45;;;;;;;43.35;21.60;;;5.70;99.90;;;;;;5010204;28;20763;-65
2022/01/27 02:44:34;;;;;;;43.33;22.15;;;5.70;99.90;;;;;;5009733;28;20049;-65
2022/01/27 02:47:01;;;;;;;42.70;22.27;;;5.80;99.90;;;;;;5022484;28;20041;-65
2022/01/27 02:49:26;;;;;;;44.90;23.73;;;5.70;99.90;;;;;;5024522;28;20052;-65
2022/01/27 02:51:53;;;;;;;40.88;23.48;;;5.70;99.90;;;;;;5021829;28;20052;-66
2022/01/27 02:54:19;;;;;;;51.97;23.08;;;5.70;99.90;;;;;;5018622;28;20041;-65
2022/01/27 02:56:47;;;;;;;47.22;22.85;;;5.70;99.90;;;;;;5020713;28;20609;-65
2022/01/27 02:59:18;;;;;;;42.10;22.20;;;5.80;99.90;;;;;;5028331;28;20128;-65
2022/01/27 03:01:46;;;;;;;45.20;23.85;;;5.80;99.90;;;;;;5024273;28;20065;-64
2022/01/27 03:04:12;;;;;;;44.47;23.10;;;5.80;99.90;;;;;;5023525;28;20072;-65
2022/01/27 03:06:38;;;;;;;44.20;24.05;;;5.80;99.90;;;;;;5013565;28;23566;-65
2022/01/27 03:09:04;;;;;;;44.58;22.70;;;5.80;99.90;;;;;;5039602;28;20040;-65
2022/01/27 03:11:46;;;;;;;47.55;23.42;;;5.80;99.90;;;;;;5027343;28;20045;-65
2022/01/27 03:14:14;;;;;;;47.70;23.17;;;5.80;99.90;;;;;;5024904;28;20044;-65
2022/01/27 03:16:40;;;;;;;45.72;23.13;;;5.80;99.90;;;;;;5043658;28;20490;-65
2022/01/27 03:19:07;;;;;;;40.83;23.02;;;5.80;99.90;;;;;;5040279;28;20053;-65
2022/01/27 03:21:32;;;;;;;50.33;23.23;;;5.80;99.90;;;;;;5039761;28;20049;-65
2022/01/27 03:23:58;;;;;;;47.38;23.15;;;5.80;99.90;;;;;;5014424;28;20126;-65
2022/01/27 03:26:25;;;;;;;45.72;23.33;;;5.80;99.90;;;;;;5022904;28;20048;-65
2022/01/27 03:28:51;;;;;;;45.08;22.30;;;5.80;99.90;;;;;;5009056;28;20121;-65
2022/01/27 03:31:17;;;;;;;52.72;23.55;;;5.80;99.90;;;;;;5008802;28;20088;-65
2022/01/27 03:33:43;;;;;;;41.95;22.02;;;5.90;99.90;;;;;;5030557;28;20130;-65
2022/01/27 03:36:10;;;;;;;46.97;23.05;;;5.90;99.90;;;;;;5007311;28;20053;-65
2022/01/27 03:38:35;;;;;;;41.05;22.52;;;5.90;99.90;;;;;;5025943;28;20045;-65
2022/01/27 03:41:07;;;;;;;42.53;21.73;;;5.90;99.90;;;;;;5031094;28;20408;-65
2022/01/27 03:43:33;;;;;;;43.58;22.05;;;5.90;99.90;;;;;;5014640;28;20057;-65
2022/01/27 03:45:59;;;;;;;39.80;21.50;;;5.90;99.90;;;;;;5030286;28;20253;-65
2022/01/27 03:48:25;;;;;;;42.05;20.77;;;5.90;99.90;;;;;;5031284;28;20052;-65
2022/01/27 03:50:51;;;;;;;48.35;22.13;;;5.90;99.90;;;;;;5042522;28;20049;-65
2022/01/27 03:53:17;;;;;;;46.33;21.70;;;5.90;99.90;;;;;;5013893;28;20494;-65
2022/01/27 03:55:43;;;;;;;46.17;21.40;;;5.90;99.90;;;;;;5009157;28;20049;-65
2022/01/27 03:58:09;;;;;;;44.95;21.80;;;6.00;99.90;;;;;;5031561;28;20045;-65
2022/01/27 04:00:35;;;;;;;42.83;22.77;;;5.90;99.90;;;;;;5027277;28;20065;-65
2022/01/27 04:03:05;;;;;;;46.50;21.55;;;6.00;99.90;;;;;;5012065;28;20122;-65
2022/01/27 04:05:41;;;;;;;40.65;20.17;;;6.00;99.90;;;;;;5037034;28;20120;-65
2022/01/27 04:08:12;;;;;;;47.90;21.00;;;6.00;99.90;;;;;;5025070;28;20103;-65
2022/01/27 04:10:38;;;;;;;47.55;21.23;;;6.00;99.90;;;;;;5039661;28;20049;-65
2022/01/27 04:13:06;;;;;;;46.95;21.45;;;6.00;99.90;;;;;;5037600;28;20502;-65
2022/01/27 04:15:32;;;;;;;43.95;20.52;;;6.00;99.90;;;;;;5027379;28;20492;-66
2022/01/27 04:17:58;;;;;;;41.42;20.65;;;6.00;99.90;;;;;;5022549;28;20044;-65
2022/01/27 04:20:24;;;;;;;46.10;20.35;;;6.00;99.90;;;;;;5011011;28;20051;-65
2022/01/27 04:22:50;;;;;;;43.28;19.48;;;6.00;99.90;;;;;;5022505;28;20049;-65
2022/01/27 04:25:16;;;;;;;38.28;19.20;;;6.00;99.90;;;;;;5028421;28;20045;-65
2022/01/27 04:27:50;;;;;;;47.88;19.40;;;6.10;99.90;;;;;;5010465;28;20048;-66
2022/01/27 04:30:20;;;;;;;42.22;19.42;;;6.00;99.90;;;;;;5025514;28;20075;-65
2022/01/27 04:32:51;;;;;;;44.05;19.77;;;6.00;99.90;;;;;;5024734;28;20041;-65
2022/01/27 04:35:20;;;;;;;48.00;19.73;;;6.10;99.90;;;;;;5040571;28;20041;-65
2022/01/27 04:40:35;;;;;;;42.08;19.02;;;6.10;99.90;;;;;;5023794;28;20601;-65
2022/01/27 04:45:46;;;;;;;44.88;19.52;;;6.10;99.90;;;;;;5026575;28;20067;-65
2022/01/27 04:48:18;;;;;;;46.70;20.70;;;6.10;99.90;;;;;;5021560;28;20606;-65
2022/01/27 04:50:44;;;;;;;40.85;18.33;;;6.10;99.90;;;;;;5010484;28;20055;-65
2022/01/27 04:53:18;;;;;;;41.75;18.88;;;6.10;99.90;;;;;;5021998;28;20530;-65
2022/01/27 04:55:43;;;;;;;46.90;18.80;;;6.10;99.90;;;;;;5005975;28;20060;-65
2022/01/27 04:58:17;;;;;;;46.97;19.38;;;6.10;99.90;;;;;;5009978;28;20045;-65
2022/01/27 05:00:43;;;;;;;41.92;19.42;;;6.10;99.90;;;;;;5007619;28;20065;-65
2022/01/27 05:03:29;;;;;;;44.17;19.10;;;6.10;99.90;;;;;;5026464;28;20063;-65
2022/01/27 05:05:56;;;;;;;47.75;19.40;;;6.10;99.90;;;;;;5022485;28;20878;-65
2022/01/27 05:08:22;;;;;;;48.35;19.05;;;6.10;99.90;;;;;;4980324;28;20044;-65
2022/01/27 05:11:01;;;;;;;46.08;18.35;;;6.10;99.90;;;;;;5028335;28;20041;-65
2022/01/27 05:13:30;;;;;;;47.95;18.90;;;6.10;99.90;;;;;;5024456;28;20053;-64
2022/01/27 05:15:56;;;;;;;45.20;19.08;;;6.00;99.90;;;;;;5026943;28;20444;-65
2022/01/27 05:18:21;;;;;;;52.08;19.98;;;6.10;99.90;;;;;;5008637;28;20049;-65
2022/01/27 05:20:48;;;;;;;53.10;19.40;;;6.00;99.90;;;;;;5011813;28;20049;-65
2022/01/27 05:23:15;;;;;;;43.78;18.25;;;6.10;99.90;;;;;;5006427;28;20190;-65
2022/01/27 05:25:41;;;;;;;45.15;18.33;;;6.00;99.90;;;;;;5032079;28;20049;-65
2022/01/27 05:28:07;;;;;;;47.08;19.00;;;6.10;99.90;;;;;;5023258;28;20075;-65
2022/01/27 05:30:34;;;;;;;44.45;18.67;;;6.10;99.90;;;;;;5011627;28;20037;-65
2022/01/27 05:33:00;;;;;;;48.13;18.92;;;6.10;99.90;;;;;;5023071;28;20049;-65
2022/01/27 05:35:26;;;;;;;45.58;18.92;;;6.10;99.90;;;;;;4995969;28;20045;-65
2022/01/27 05:37:53;;;;;;;53.78;19.10;;;6.10;99.90;;;;;;5006383;28;20118;-65
2022/01/27 05:40:19;;;;;;;43.85;18.92;;;6.10;99.90;;;;;;5009478;28;20404;-65
2022/01/27 05:42:45;;;;;;;47.80;18.58;;;6.10;99.90;;;;;;5012139;28;20164;-65
2022/01/27 05:45:11;;;;;;;48.10;18.83;;;6.10;99.90;;;;;;5023735;28;20429;-65
2022/01/27 05:47:37;;;;;;;47.83;18.90;;;6.10;99.90;;;;;;5028475;28;20050;-65
2022/01/27 05:50:04;;;;;;;45.70;19.40;;;6.10;99.90;;;;;;4998010;28;20536;-65
2022/01/27 05:52:30;;;;;;;56.10;20.08;;;6.10;99.90;;;;;;4988389;28;20041;-65
2022/01/27 05:54:57;;;;;;;48.92;19.25;;;6.10;99.90;;;;;;5005527;28;20048;-65
2022/01/27 05:57:23;;;;;;;51.17;19.45;;;6.00;99.90;;;;;;5027798;28;20106;-65
2022/01/27 05:59:49;;;;;;;48.67;19.25;;;6.10;99.90;;;;;;5019960;28;20551;-66
2022/01/27 06:02:15;;;;;;;45.13;18.77;;;6.10;99.90;;;;;;5043425;28;20045;-65
2022/01/27 06:04:41;;;;;;;54.45;20.50;;;6.10;99.90;;;;;;5023056;28;20418;-66
2022/01/27 06:07:07;;;;;;;53.40;19.83;;;6.10;99.90;;;;;;5027969;28;20118;-66
2022/01/27 06:09:32;;;;;;;46.10;19.65;;;6.20;99.90;;;;;;5013902;28;20149;-66
2022/01/27 06:11:58;;;;;;;42.97;18.63;;;6.10;99.90;;;;;;5026103;28;20759;-66
2022/01/27 06:14:24;;;;;;;51.00;19.27;;;6.10;99.90;;;;;;5030024;28;20045;-66
2022/01/27 06:16:50;;;;;;;45.30;18.98;;;6.10;99.90;;;;;;5014431;28;20053;-66
2022/01/27 06:19:15;;;;;;;48.17;19.35;;;6.10;99.90;;;;;;5025538;28;20047;-66
2022/01/27 06:21:45;;;;;;;53.45;19.15;;;6.10;99.90;;;;;;5011849;28;20072;-66
2022/01/27 06:24:11;;;;;;;46.03;18.95;;;6.10;99.90;;;;;;5013269;28;20080;-66
2022/01/27 06:26:37;;;;;;;47.00;17.95;;;6.10;99.90;;;;;;5026123;28;20274;-66
2022/01/27 06:29:03;;;;;;;46.22;18.08;;;6.20;99.90;;;;;;5021048;28;20047;-66
2022/01/27 06:31:29;;;;;;;47.80;18.23;;;6.10;99.90;;;;;;5028821;28;20055;-66
2022/01/27 06:33:55;;;;;;;43.75;17.35;;;6.20;99.90;;;;;;5027390;28;20041;-66
2022/01/27 06:36:20;;;;;;;45.65;18.15;;;6.20;99.90;;;;;;5027941;28;20056;-66
2022/01/27 06:38:46;;;;;;;44.30;17.42;;;6.30;99.90;;;;;;5026187;28;20076;-66
2022/01/27 06:41:13;;;;;;;45.85;18.00;;;6.20;99.90;;;;;;5036228;28;20059;-66
2022/01/27 06:43:39;;;;;;;42.35;16.48;;;6.30;99.90;;;;;;5016825;28;20461;-66
2022/01/27 06:46:05;;;;;;;46.88;17.80;;;6.30;99.90;;;;;;5016858;28;20090;-66
2022/01/27 06:48:31;;;;;;;38.65;17.00;;;6.30;99.90;;;;;;5045832;28;20491;-67
2022/01/27 06:50:56;;;;;;;42.60;17.95;;;6.30;99.90;;;;;;5014160;28;22552;-67
2022/01/27 06:53:23;;;;;;;42.58;18.17;;;6.30;99.90;;;;;;5028254;28;20044;-66
2022/01/27 06:55:49;;;;;;;38.65;17.00;;;6.30;99.90;;;;;;5027132;28;20071;-67
2022/01/27 06:58:15;;;;;;;43.00;17.17;;;6.30;99.90;;;;;;5018529;28;20449;-67
2022/01/27 07:00:41;;;;;;;46.58;17.77;;;6.30;99.90;;;;;;5011727;28;20061;-67
2022/01/27 07:03:07;;;;;;;42.20;16.58;;;6.40;99.90;;;;;;5026245;28;20088;-67
2022/01/27 07:05:34;;;;;;;41.28;18.10;;;6.40;99.90;;;;;;4997854;28;20613;-67
2022/01/27 07:08:01;;;;;;;36.00;16.13;;;6.40;99.90;;;;;;5026758;28;20052;-67
2022/01/27 07:10:27;;;;;;;40.40;16.92;;;6.40;99.90;;;;;;5023220;28;20045;-67
2022/01/27 07:12:53;;;;;;;37.08;15.90;;;6.40;99.90;;;;;;5024287;28;20736;-67
2022/01/27 07:15:20;;;;;;;36.10;15.95;;;6.40;99.90;;;;;;5006378;28;20063;-67
2022/01/27 07:17:47;;;;;;;34.92;15.55;;;6.40;99.90;;;;;;5020195;28;20144;-67
2022/01/27 07:20:13;;;;;;;37.05;14.85;;;6.50;99.90;;;;;;5017158;28;20055;-67
2022/01/27 07:22:39;;;;;;;40.92;15.27;;;6.50;99.90;;;;;;5032057;28;20045;-67
2022/01/27 07:25:07;;;;;;;33.45;14.68;;;6.50;99.90;;;;;;5025643;28;21013;-67
2022/01/27 07:27:34;;;;;;;35.55;14.75;;;6.50;99.90;;;;;;5008323;28;20061;-66
2022/01/27 07:30:00;;;;;;;29.77;14.18;;;6.50;99.90;;;;;;5008883;28;20049;-67
2022/01/27 07:32:26;;;;;;;37.90;15.05;;;6.50;99.90;;;;;;5020562;28;20053;-66
2022/01/27 07:34:52;;;;;;;32.47;13.98;;;6.60;99.90;;;;;;5008476;28;20055;-67
2022/01/27 07:37:18;;;;;;;37.60;15.57;;;6.60;99.90;;;;;;5026000;28;20076;-66
2022/01/27 07:39:44;;;;;;;35.80;15.20;;;6.60;99.90;;;;;;5024914;28;20566;-66
2022/01/27 07:42:10;;;;;;;37.85;15.30;;;6.60;99.90;;;;;;5006545;28;20131;-67
2022/01/27 07:44:36;;;;;;;39.15;15.00;;;6.60;99.90;;;;;;5004938;28;20356;-67
2022/01/27 07:47:03;;;;;;;37.15;14.48;;;6.70;99.90;;;;;;4998240;28;20061;-66
2022/01/27 07:49:29;;;;;;;37.63;15.43;;;6.70;99.90;;;;;;5027507;28;20498;-67
2022/01/27 07:51:56;;;;;;;33.10;14.30;;;6.70;99.90;;;;;;5008030;28;20076;-66
2022/01/27 07:54:21;;;;;;;36.20;14.20;;;6.80;99.90;;;;;;5012248;28;20124;-66
2022/01/27 07:56:47;;;;;;;36.72;13.40;;;6.70;99.90;;;;;;5005900;28;20780;-66
2022/01/27 07:59:13;;;;;;;42.25;13.23;;;6.90;99.90;;;;;;5024345;28;20131;-66
2022/01/27 08:01:39;;;;;;;43.88;14.10;;;6.90;99.90;;;;;;5027898;28;20144;-67
2022/01/27 08:04:05;;;;;;;41.58;13.75;;;6.90;99.90;;;;;;5029763;28;20141;-66
2022/01/27 08:06:31;;;;;;;45.13;13.80;;;7.00;99.90;;;;;;5028300;28;20054;-66
2022/01/27 08:08:57;;;;;;;43.83;13.02;;;7.00;99.90;;;;;;5025272;28;20149;-66
2022/01/27 08:11:23;;;;;;;39.08;13.25;;;7.00;99.90;;;;;;5025061;28;20050;-66
2022/01/27 08:13:49;;;;;;;39.95;13.05;;;7.00;99.90;;;;;;5009927;28;20048;-66
2022/01/27 08:16:15;;;;;;;41.38;13.43;;;7.00;99.90;;;;;;5024850;28;20416;-66
2022/01/27 08:18:41;;;;;;;37.67;12.23;;;7.10;99.90;;;;;;5026987;28;20056;-66
2022/01/27 08:21:06;;;;;;;38.03;12.13;;;7.00;99.90;;;;;;5030182;28;20045;-66
2022/01/27 08:23:32;;;;;;;37.28;11.13;;;7.10;99.90;;;;;;4995811;28;20443;-66
2022/01/27 08:26:09;;;;;;;37.55;11.48;;;7.10;99.90;;;;;;5029693;28;20037;-66
2022/01/27 08:28:42;;;;;;;37.63;12.15;;;7.20;99.90;;;;;;5026029;28;20100;-66
2022/01/27 08:31:08;;;;;;;;;;;7.30;99.90;;;;;;5011510;28;20040;-66
2022/01/27 08:33:38;;;;;;;31.60;9.90;;;7.20;99.90;;;;;;5000478;28;19925;-66
2022/01/27 08:36:04;;;;;;;30.23;10.85;;;7.30;99.90;;;;;;5008716;28;20136;-66
2022/01/27 08:38:30;;;;;;;34.55;9.80;;;7.30;99.90;;;;;;5024923;28;20044;-66
2022/01/27 08:40:59;;;;;;;28.48;9.75;;;7.30;99.90;;;;;;5026883;28;20107;-66
2022/01/27 08:43:26;;;;;;;32.00;10.90;;;7.30;99.90;;;;;;5024544;28;20053;-66
2022/01/27 08:45:52;;;;;;;30.98;9.05;;;7.30;99.90;;;;;;5006522;28;20048;-66
2022/01/27 08:48:20;;;;;;;38.97;10.10;;;7.40;99.90;;;;;;4993041;28;20048;-66
2022/01/27 08:50:58;;;;;;;30.65;9.70;;;7.40;99.90;;;;;;5024505;28;20044;-66
2022/01/27 08:53:25;;;;;;;30.10;9.10;;;7.40;99.90;;;;;;5023612;28;20052;-66
2022/01/27 08:55:51;;;;;;;29.02;9.48;;;7.40;99.90;;;;;;5019463;28;20045;-66
2022/01/27 08:58:17;;;;;;;27.25;8.50;;;7.40;99.90;;;;;;5024550;28;20060;-66
2022/01/27 09:00:43;;;;;;;31.23;9.85;;;7.40;99.90;;;;;;5012163;28;20085;-66
2022/01/27 09:03:09;;;;;;;28.67;8.30;;;7.50;99.90;;;;;;5023320;28;20045;-66
2022/01/27 09:05:36;;;;;;;28.38;8.73;;;7.40;99.90;;;;;;5007184;28;20080;-66
2022/01/27 09:08:02;;;;;;;32.00;8.63;;;7.50;99.90;;;;;;5023011;28;20128;-66
2022/01/27 09:10:31;;;;;;;24.17;7.63;;;7.50;99.90;;;;;;5027052;28;20049;-66
2022/01/27 09:13:02;;;;;;;30.63;8.40;;;7.60;99.90;;;;;;5012222;28;20558;-66
2022/01/27 09:15:32;;;;;;;31.95;8.50;;;7.60;99.90;;;;;;5024496;28;20546;-66
2022/01/27 09:17:59;;;;;;;32.70;7.50;;;7.60;99.90;;;;;;5005508;28;20045;-66
2022/01/27 09:20:26;;;;;;;26.48;6.45;;;7.60;99.90;;;;;;4981578;28;20063;-66
2022/01/27 09:22:53;;;;;;;30.48;6.65;;;7.60;99.90;;;;;;5026378;28;20049;-66
2022/01/27 09:25:23;;;;;;;28.85;6.95;;;7.70;99.90;;;;;;5027159;28;20044;-66
2022/01/27 09:27:49;;;;;;;29.48;6.53;;;7.70;99.90;;;;;;5009438;28;20098;-66
2022/01/27 09:30:17;;;;;;;23.67;6.18;;;7.80;99.90;;;;;;5014398;28;20575;-66
2022/01/27 09:32:44;;;;;;;27.85;7.28;;;7.90;99.90;;;;;;5012014;28;20037;-65
2022/01/27 09:35:11;;;;;;;25.15;6.57;;;7.80;99.90;;;;;;5022711;28;20231;-66
2022/01/27 09:37:38;;;;;;;25.90;7.05;;;7.90;99.90;;;;;;5008107;28;20072;-66
2022/01/27 09:40:06;;;;;;;29.17;6.30;;;7.90;99.90;;;;;;5012424;28;20056;-66
2022/01/27 09:42:34;;;;;;;25.30;6.55;;;7.90;99.90;;;;;;5008966;28;20571;-66
2022/01/27 09:45:03;;;;;;;35.60;7.30;;;7.90;99.90;;;;;;5023591;28;20053;-66
2022/01/27 09:47:31;;;;;;;28.65;6.63;;;7.90;99.90;;;;;;5023777;28;20076;-66
2022/01/27 09:50:22;;;;;;;26.30;6.40;;;7.90;99.90;;;;;;5022690;28;20565;-66
2022/01/27 09:52:48;;;;;;;34.70;6.63;;;7.90;99.90;;;;;;5021266;28;20484;-66
2022/01/27 09:55:14;;;;;;;27.90;6.88;;;7.90;99.90;;;;;;5004493;28;20501;-66
2022/01/27 09:57:40;;;;;;;28.42;6.32;;;7.90;99.90;;;;;;5022547;28;20060;-66
2022/01/27 10:00:07;;;;;;;26.75;5.75;;;8.00;99.90;;;;;;5011836;28;20049;-66
2022/01/27 10:02:32;;;;;;;21.75;6.03;;;8.00;99.90;;;;;;5017325;28;20060;-66
2022/01/27 10:04:58;;;;;;;29.33;5.68;;;8.00;99.90;;;;;;5013062;28;20063;-66
2022/01/27 10:07:35;;;;;;;27.50;6.30;;;8.10;99.90;;;;;;5024086;28;20053;-66
2022/01/27 10:10:06;;;;;;;27.17;6.07;;;8.10;99.90;;;;;;5025476;28;20041;-65
2022/01/27 10:12:45;;;;;;;29.98;5.43;;;8.10;99.90;;;;;;5025023;28;20055;-66
2022/01/27 10:15:20;;;;;;;26.80;6.15;;;8.10;99.90;;;;;;5025214;28;20041;-65
2022/01/27 10:18:10;;;;;;;28.15;6.00;;;8.10;99.90;;;;;;5008446;28;20130;-66
2022/01/27 10:20:44;;;;;;;24.55;5.57;;;8.10;99.90;;;;;;5025604;28;20481;-65
2022/01/27 10:23:22;;;;;;;23.05;5.50;;;8.10;99.90;;;;;;5007386;28;20063;-65
2022/01/27 10:25:57;;;;;;;28.73;5.85;;;8.20;99.90;;;;;;5025065;28;22105;-66
2022/01/27 10:29:32;;;;;;;22.65;5.93;;;8.20;99.90;;;;;;5032478;28;20045;-66
2022/01/27 10:31:24;;;;;;;28.42;6.00;;;8.30;99.90;;;;;;5017154;28;20537;-66
2022/01/27 10:34:01;;;;;;;27.30;5.82;;;8.30;99.90;;;;;;5013610;28;20130;-66
2022/01/27 10:36:41;;;;;;;28.95;5.38;;;8.40;99.90;;;;;;5013326;28;20048;-65
2022/01/27 10:39:08;;;;;;;30.35;6.32;;;8.40;99.90;;;;;;5024880;28;20110;-65
2022/01/27 10:41:38;;;;;;;30.48;5.45;;;8.50;99.90;;;;;;5029081;28;20151;-66
2022/01/27 10:44:31;;;;;;;29.17;6.22;;;8.50;99.90;;;;;;5008542;28;20110;-66
2022/01/27 10:47:08;;;;;;;;;;;8.50;99.90;;;;;;5012551;28;20049;-66
2022/01/27 10:49:38;;;;;;;22.90;5.80;;;8.60;99.90;;;;;;4991279;28;21555;-66
2022/01/27 10:52:09;;;;;;;26.08;5.57;;;8.60;99.90;;;;;;5011740;28;20041;-66
2022/01/27 10:54:40;;;;;;;31.90;5.93;;;8.60;99.90;;;;;;5042597;28;20059;-65
2022/01/27 10:57:09;;;;;;;23.02;5.68;;;8.60;99.90;;;;;;5029663;28;20570;-65
2022/01/27 10:59:36;;;;;;;28.08;6.15;;;8.70;99.90;;;;;;5028788;28;20052;-65
2022/01/27 11:02:08;;;;;;;24.35;5.70;;;8.70;99.90;;;;;;5025793;28;20637;-65
2022/01/27 11:04:39;;;;;;;26.05;5.65;;;8.70;99.90;;;;;;5021454;28;20060;-65
2022/01/27 11:07:09;;;;;;;28.15;5.88;;;8.70;99.90;;;;;;5023410;28;20123;-66
2022/01/27 11:09:37;;;;;;;38.28;5.65;;;8.70;99.90;;;;;;5007536;28;21326;-66
2022/01/27 11:12:08;;;;;;;20.90;5.03;;;8.70;99.90;;;;;;5003232;28;20551;-66
2022/01/27 11:14:35;;;;;;;28.50;5.57;;;8.70;99.90;;;;;;5028415;28;20182;-66
2022/01/27 11:17:06;;;;;;;26.35;5.55;;;8.70;99.90;;;;;;5029608;28;20508;-66
2022/01/27 11:22:57;;;;;;;28.33;5.35;;;8.80;99.90;;;;;;5027783;28;20497;-66
2022/01/27 11:25:58;;;;;;;25.45;5.80;;;8.80;99.90;;;;;;5023861;28;20199;-66
2022/01/27 11:27:58;;;;;;;35.15;5.55;;;8.80;99.90;;;;;;5009152;28;21528;-66
2022/01/27 11:31:14;;;;;;;25.13;5.00;;;8.80;99.90;;;;;;5013945;28;20102;-66
2022/01/27 11:33:44;;;;;;;31.17;5.90;;;8.80;99.90;;;;;;4998537;28;20519;-66
2022/01/27 11:36:19;;;;;;;29.00;5.45;;;8.80;99.90;;;;;;5013322;28;20052;-66
2022/01/27 11:38:48;;;;;;;28.42;4.85;;;8.80;99.90;;;;;;5032378;28;20044;-65
2022/01/27 11:41:48;;;;;;;32.30;5.45;;;8.90;99.90;;;;;;5011656;28;20102;-65
2022/01/27 11:44:23;;;;;;;26.65;5.35;;;8.90;99.90;;;;;;5025792;28;20049;-66
2022/01/27 11:47:11;;;;;;;22.48;4.85;;;8.90;99.90;;;;;;5007690;28;20115;-66
2022/01/27 11:49:47;;;;;;;24.10;4.50;;;8.80;99.90;;;;;;5026424;28;20151;-66
2022/01/27 11:52:33;;;;;;;32.60;5.00;;;8.90;99.90;;;;;;5043740;28;20130;-66
2022/01/27 11:55:24;;;;;;;34.00;5.00;;;8.90;99.90;;;;;;5025050;28;20167;-66
2022/01/27 11:57:57;;;;;;;32.30;4.65;;;8.90;99.90;;;;;;5025298;28;20071;-66
2022/01/27 12:00:28;;;;;;;32.47;5.28;;;8.90;99.90;;;;;;5027147;28;20057;-66
2022/01/27 12:03:04;;;;;;;23.52;4.35;;;8.90;99.90;;;;;;5027456;28;20045;-66
2022/01/27 12:05:35;;;;;;;24.30;4.63;;;8.90;99.90;;;;;;5011217;28;20041;-66
2022/01/27 12:08:13;;;;;;;28.42;5.22;;;8.90;99.90;;;;;;5028894;28;20545;-66
2022/01/27 12:10:50;;;;;;;25.70;4.35;;;8.90;99.90;;;;;;5027861;28;20045;-66
2022/01/27 12:19:11;;;;;;;28.38;4.70;;;8.90;99.90;;;;;;5025262;28;20052;-66
2022/01/27 12:21:39;;;;;;;29.80;4.97;;;8.90;99.90;;;;;;5014235;28;20056;-65
2022/01/27 12:24:16;;;;;;;29.30;5.03;;;8.90;99.90;;;;;;5030613;28;20079;-66
2022/01/27 12:27:02;;;;;;;35.08;5.68;;;8.90;99.90;;;;;;5026499;28;20506;-66
2022/01/27 12:29:31;;;;;;;30.75;4.47;;;9.00;99.90;;;;;;5028811;28;20048;-66
2022/01/27 12:32:03;;;;;;;20.65;4.55;;;8.90;99.90;;;;;;5026553;28;20701;-66
2022/01/27 12:34:30;;;;;;;29.83;4.80;;;9.00;99.90;;;;;;5028042;28;20048;-66
2022/01/27 12:36:59;;;;;;;30.58;4.88;;;9.00;99.90;;;;;;5015060;28;20068;-66
2022/01/27 12:39:27;;;;;;;32.88;4.93;;;9.00;99.90;;;;;;5028480;28;20053;-66
2022/01/27 12:41:54;;;;;;;29.42;4.63;;;9.10;99.90;;;;;;5025414;28;20040;-66
2022/01/27 12:44:21;;;;;;;25.15;4.82;;;9.00;99.90;;;;;;5039292;28;20088;-66
2022/01/27 12:47:14;;;;;;;26.67;5.05;;;9.00;99.90;;;;;;5028337;28;20155;-66
2022/01/27 12:49:49;;;;;;;39.95;5.45;;;9.00;99.90;;;;;;5010230;28;20056;-66
2022/01/27 12:52:19;;;;;;;36.47;5.05;;;9.10;99.90;;;;;;5032504;28;20047;-66
2022/01/27 12:54:49;;;;;;;27.98;5.28;;;9.10;99.90;;;;;;5005572;28;20044;-66
2022/01/27 12:57:25;;;;;;;29.23;4.95;;;9.10;99.90;;;;;;5010390;28;20056;-66
2022/01/27 12:59:53;;;;;;;22.85;4.38;;;9.10;99.90;;;;;;5034149;28;20049;-66
2022/01/27 13:02:20;;;;;;;32.45;5.03;;;9.10;99.90;;;;;;4995321;28;20075;-66
2022/01/27 13:04:47;;;;;;;30.02;5.28;;;9.00;99.90;;;;;;5043862;28;20055;-65
2022/01/27 13:07:13;;;;;;;25.55;4.22;;;9.00;99.90;;;;;;5043006;28;20049;-66
2022/01/27 13:09:40;;;;;;;28.23;4.75;;;9.00;99.90;;;;;;5026669;28;20070;-66
2022/01/27 13:12:20;;;;;;;29.25;5.20;;;9.00;99.90;;;;;;5019271;28;20048;-66
2022/01/27 13:14:58;;;;;;;28.27;4.25;;;9.00;99.90;;;;;;5025210;28;20119;-66
2022/01/27 13:17:58;;;;;;;28.75;4.60;;;9.00;99.90;;;;;;5023858;28;20492;-66
2022/01/27 13:20:36;;;;;;;30.65;4.85;;;9.00;99.90;;;;;;5023129;28;20055;-66
2022/01/27 13:23:49;;;;;;;35.45;4.97;;;9.00;99.90;;;;;;5013431;28;20101;-66
2022/01/27 13:26:01;;;;;;;30.13;4.72;;;9.00;99.90;;;;;;5014789;28;20136;-65
2022/01/27 13:28:28;;;;;;;20.65;4.05;;;9.00;99.90;;;;;;5008863;28;20127;-66
2022/01/27 13:31:09;;;;;;;29.95;5.22;;;9.00;99.90;;;;;;5037689;28;20045;-66
2022/01/27 13:33:53;;;;;;;27.33;4.88;;;9.00;99.90;;;;;;5024071;28;20147;-66
2022/01/27 13:36:24;;;;;;;24.10;4.50;;;9.00;99.90;;;;;;5021305;28;20090;-66
2022/01/27 13:41:36;;;;;;;24.95;4.53;;;8.90;99.90;;;;;;5023034;28;20484;-65
2022/01/27 13:44:10;;;;;;;34.05;4.95;;;8.90;99.90;;;;;;5021643;28;20059;-66
2022/01/27 13:46:57;;;;;;;33.45;4.63;;;8.90;99.90;;;;;;5021123;28;20052;-66